createdAt,value
2018-12-10T00:00:29.329Z,1024.17
2018-12-10T00:01:10.051Z,1024.12
2018-12-10T00:01:50.915Z,1024.08
2018-12-10T00:02:31.629Z,1024.06
2018-12-10T00:03:12.410Z,1024.05
2018-12-10T00:03:53.133Z,1024.04
2018-12-10T00:04:33.873Z,1024.03
2018-12-10T00:05:14.674Z,1024
2018-12-10T00:05:55.404Z,1024
2018-12-10T00:06:36.137Z,1023.98
2018-12-10T00:07:16.955Z,1024.01
2018-12-10T00:07:57.747Z,1024
2018-12-10T00:08:38.620Z,1023.98
2018-12-10T00:09:19.352Z,1023.97
2018-12-10T00:10:00.135Z,1023.94
2018-12-10T00:10:41.616Z,1023.97
2018-12-10T00:11:21.645Z,1023.94
2018-12-10T00:12:02.389Z,1023.93
2018-12-10T00:12:43.077Z,1023.96
2018-12-10T00:13:23.855Z,1023.97
2018-12-10T00:14:04.702Z,1023.97
2018-12-10T00:14:45.488Z,1023.96
2018-12-10T00:15:26.299Z,1023.94
2018-12-10T00:16:07.019Z,1023.96
2018-12-10T00:16:47.733Z,1023.98
2018-12-10T00:17:28.468Z,1023.96
2018-12-10T00:18:09.279Z,1023.97
2018-12-10T00:18:50.034Z,1023.98
2018-12-10T00:19:30.761Z,1023.96
2018-12-10T00:20:11.570Z,1024.01
2018-12-10T00:20:52.386Z,1023.97
2018-12-10T00:21:33.219Z,1024.01
2018-12-10T00:22:13.965Z,1023.96
2018-12-10T00:22:54.674Z,1024
2018-12-10T00:23:35.458Z,1023.95
2018-12-10T00:24:16.181Z,1024
2018-12-10T00:24:56.983Z,1023.99
2018-12-10T00:25:37.773Z,1023.97
2018-12-10T00:26:18.552Z,1024
2018-12-10T00:26:59.279Z,1023.98
2018-12-10T00:27:40.068Z,1024.02
2018-12-10T00:28:20.844Z,1023.99
2018-12-10T00:29:01.522Z,1023.99
2018-12-10T00:29:42.232Z,1024.03
2018-12-10T00:30:22.932Z,1024.04
2018-12-10T00:31:03.760Z,1024.04
2018-12-10T00:31:44.592Z,1024.08
2018-12-10T00:32:25.426Z,1024.08
2018-12-10T00:33:06.173Z,1024.13
2018-12-10T00:33:47.007Z,1024.16
2018-12-10T00:34:27.936Z,1024.14
2018-12-10T00:35:08.749Z,1024.16
2018-12-10T00:35:49.595Z,1024.17
2018-12-10T00:36:30.303Z,1024.19
2018-12-10T00:37:11.169Z,1024.12
2018-12-10T00:37:52.026Z,1024.11
2018-12-10T00:38:32.946Z,1024.07
2018-12-10T00:39:13.776Z,1024.03
2018-12-10T00:39:54.496Z,1024.05
2018-12-10T00:40:35.265Z,1024.07
2018-12-10T00:41:16.074Z,1024
2018-12-10T00:41:56.805Z,1024.07
2018-12-10T00:42:37.554Z,1024.04
2018-12-10T00:43:18.269Z,1024.07
2018-12-10T00:43:59.032Z,1024.03
2018-12-10T00:44:39.809Z,1024.08
2018-12-10T00:45:20.528Z,1024.05
2018-12-10T00:46:01.280Z,1024.04
2018-12-10T00:46:42.068Z,1024.08
2018-12-10T00:47:22.869Z,1024.03
2018-12-10T00:48:03.640Z,1024.03
2018-12-10T00:48:44.355Z,1024.03
2018-12-10T00:49:25.037Z,1024
2018-12-10T00:50:05.824Z,1024.03
2018-12-10T00:50:46.643Z,1024.03
2018-12-10T00:51:27.378Z,1024
2018-12-10T00:52:08.214Z,1024.05
2018-12-10T00:52:48.952Z,1024.03
2018-12-10T00:53:29.706Z,1024.04
2018-12-10T00:54:10.495Z,1024.01
2018-12-10T00:54:51.212Z,1024.05
2018-12-10T00:55:31.931Z,1024.07
2018-12-10T00:56:12.619Z,1024.01
2018-12-10T00:56:53.381Z,1024.05
2018-12-10T00:57:34.160Z,1023.99
2018-12-10T00:58:14.940Z,1024
2018-12-10T00:58:55.735Z,1024.08
2018-12-10T00:59:36.546Z,1024.07
2018-12-10T01:00:17.375Z,1024.09
2018-12-10T01:00:58.146Z,1024.14
2018-12-10T01:01:38.861Z,1024.14
2018-12-10T01:02:19.644Z,1024.13
2018-12-10T01:03:00.436Z,1024.13
2018-12-10T01:03:41.169Z,1024.14
2018-12-10T01:04:21.919Z,1024.15
2018-12-10T01:05:02.608Z,1024.13
2018-12-10T01:05:43.394Z,1024.11
2018-12-10T01:06:24.247Z,1024.09
2018-12-10T01:07:05.018Z,1024.09
2018-12-10T01:07:45.823Z,1024.12
2018-12-10T01:08:26.516Z,1024.12
2018-12-10T01:09:07.276Z,1024.11
2018-12-10T01:09:48.005Z,1024.11
2018-12-10T01:10:28.825Z,1024.05
2018-12-10T01:11:09.548Z,1024.06
2018-12-10T01:11:50.292Z,1024.06
2018-12-10T01:12:31.083Z,1024.04
2018-12-10T01:13:11.930Z,1024.03
2018-12-10T01:13:52.766Z,1024.04
2018-12-10T01:14:33.437Z,1024.05
2018-12-10T01:15:14.152Z,1024.04
2018-12-10T01:15:54.998Z,1024.05
2018-12-10T01:16:35.749Z,1024.02
2018-12-10T01:17:16.505Z,1024.06
2018-12-10T01:17:57.246Z,1024
2018-12-10T01:18:37.966Z,1024.03
2018-12-10T01:19:18.757Z,1024
2018-12-10T01:19:59.487Z,1024.08
2018-12-10T01:20:40.247Z,1024.08
2018-12-10T01:21:21.091Z,1024.08
2018-12-10T01:22:01.925Z,1024.06
2018-12-10T01:22:42.759Z,1024.09
2018-12-10T01:23:23.477Z,1024.12
2018-12-10T01:24:04.185Z,1024.11
2018-12-10T01:24:44.892Z,1024.11
2018-12-10T01:25:25.756Z,1024.09
2018-12-10T01:26:06.601Z,1024.08
2018-12-10T01:26:47.352Z,1024.07
2018-12-10T01:27:28.070Z,1024.09
2018-12-10T01:28:08.796Z,1024.07
2018-12-10T01:28:49.619Z,1024.07
2018-12-10T01:29:30.414Z,1024.07
2018-12-10T01:30:11.167Z,1024.04
2018-12-10T01:30:51.951Z,1024.04
2018-12-10T01:31:32.732Z,1024.02
2018-12-10T01:32:13.544Z,1024.03
2018-12-10T01:32:54.287Z,1024.01
2018-12-10T01:33:35.097Z,1024
2018-12-10T01:34:15.823Z,1024.02
2018-12-10T01:34:56.546Z,1024.01
2018-12-10T01:35:37.265Z,1024.02
2018-12-10T01:36:18.033Z,1024.05
2018-12-10T01:36:58.874Z,1024.04
2018-12-10T01:37:39.582Z,1024.05
2018-12-10T01:38:20.347Z,1024.02
2018-12-10T01:39:01.196Z,1024.09
2018-12-10T01:39:41.972Z,1024.09
2018-12-10T01:40:22.752Z,1024.09
2018-12-10T01:41:03.542Z,1024.1
2018-12-10T01:41:44.277Z,1024.11
2018-12-10T01:42:25.039Z,1024.17
2018-12-10T01:43:05.868Z,1024.13
2018-12-10T01:43:46.633Z,1024.21
2018-12-10T01:44:27.506Z,1024.15
2018-12-10T01:45:08.210Z,1024.1
2018-12-10T01:45:48.990Z,1024.13
2018-12-10T01:46:29.802Z,1024.18
2018-12-10T01:47:10.498Z,1024.14
2018-12-10T01:47:51.242Z,1024.15
2018-12-10T01:48:32.024Z,1024.19
2018-12-10T01:49:12.778Z,1024.17
2018-12-10T01:49:53.593Z,1024.13
2018-12-10T01:50:34.348Z,1024.13
2018-12-10T01:51:15.109Z,1024.1
2018-12-10T01:51:55.954Z,1024.12
2018-12-10T01:52:36.728Z,1024.15
2018-12-10T01:53:17.553Z,1024.19
2018-12-10T01:53:58.259Z,1024.18
2018-12-10T01:54:39.059Z,1024.11
2018-12-10T01:55:19.827Z,1024.09
2018-12-10T01:56:00.544Z,1024.09
2018-12-10T01:56:41.292Z,1024.15
2018-12-10T01:57:22.028Z,1024.2
2018-12-10T01:58:02.813Z,1024.19
2018-12-10T01:58:43.654Z,1024.27
2018-12-10T01:59:24.499Z,1024.26
2018-12-10T02:00:05.177Z,1024.3
2018-12-10T02:00:45.875Z,1024.31
2018-12-10T02:01:26.597Z,1024.3
2018-12-10T02:02:07.359Z,1024.31
2018-12-10T02:02:48.181Z,1024.29
2018-12-10T02:03:28.896Z,1024.29
2018-12-10T02:04:09.595Z,1024.25
2018-12-10T02:04:50.389Z,1024.24
2018-12-10T02:05:31.154Z,1024.28
2018-12-10T02:06:11.919Z,1024.28
2018-12-10T02:06:52.623Z,1024.28
2018-12-10T02:07:33.344Z,1024.3
2018-12-10T02:08:14.029Z,1024.32
2018-12-10T02:08:54.822Z,1024.29
2018-12-10T02:09:35.574Z,1024.34
2018-12-10T02:10:16.389Z,1024.3
2018-12-10T02:10:57.090Z,1024.32
2018-12-10T02:11:37.805Z,1024.3
2018-12-10T02:12:18.606Z,1024.28
2018-12-10T02:12:59.364Z,1024.29
2018-12-10T02:13:40.083Z,1024.35
2018-12-10T02:14:20.848Z,1024.36
2018-12-10T02:15:01.612Z,1024.34
2018-12-10T02:15:42.361Z,1024.36
2018-12-10T02:16:23.159Z,1024.39
2018-12-10T02:17:03.887Z,1024.35
2018-12-10T02:17:44.638Z,1024.4
2018-12-10T02:18:25.366Z,1024.42
2018-12-10T02:19:06.062Z,1024.42
2018-12-10T02:19:46.883Z,1024.43
2018-12-10T02:20:27.604Z,1024.47
2018-12-10T02:21:08.297Z,1024.47
2018-12-10T02:21:49.075Z,1024.51
2018-12-10T02:22:29.816Z,1024.53
2018-12-10T02:23:10.634Z,1024.5
2018-12-10T02:23:51.343Z,1024.5
2018-12-10T02:24:32.063Z,1024.48
2018-12-10T02:25:12.926Z,1024.48
2018-12-10T02:25:53.716Z,1024.51
2018-12-10T02:26:34.454Z,1024.48
2018-12-10T02:27:15.184Z,1024.49
2018-12-10T02:27:55.918Z,1024.47
2018-12-10T02:28:36.712Z,1024.48
2018-12-10T02:29:17.419Z,1024.48
2018-12-10T02:29:58.139Z,1024.49
2018-12-10T02:30:38.947Z,1024.48
2018-12-10T02:31:19.723Z,1024.48
2018-12-10T02:32:00.518Z,1024.52
2018-12-10T02:32:41.214Z,1024.5
2018-12-10T02:33:21.897Z,1024.49
2018-12-10T02:34:02.607Z,1024.52
2018-12-10T02:34:43.407Z,1024.51
2018-12-10T02:35:24.188Z,1024.46
2018-12-10T02:36:05.034Z,1024.43
2018-12-10T02:36:45.798Z,1024.43
2018-12-10T02:37:26.528Z,1024.41
2018-12-10T02:38:07.322Z,1024.45
2018-12-10T02:38:48.100Z,1024.44
2018-12-10T02:39:28.869Z,1024.42
2018-12-10T02:40:09.575Z,1024.4
2018-12-10T02:40:50.305Z,1024.42
2018-12-10T02:41:31.102Z,1024.44
2018-12-10T02:42:11.866Z,1024.42
2018-12-10T02:42:52.668Z,1024.49
2018-12-10T02:43:33.404Z,1024.46
2018-12-10T02:44:14.151Z,1024.49
2018-12-10T02:44:54.879Z,1024.54
2018-12-10T02:45:35.658Z,1024.51
2018-12-10T02:46:16.402Z,1024.51
2018-12-10T02:46:57.130Z,1024.5
2018-12-10T02:47:37.880Z,1024.51
2018-12-10T02:48:18.662Z,1024.5
2018-12-10T02:48:59.464Z,1024.51
2018-12-10T02:49:40.232Z,1024.51
2018-12-10T02:50:20.994Z,1024.52
2018-12-10T02:51:01.741Z,1024.52
2018-12-10T02:51:42.481Z,1024.49
2018-12-10T02:52:23.306Z,1024.48
2018-12-10T02:53:04.099Z,1024.46
2018-12-10T02:53:44.912Z,1024.45
2018-12-10T02:54:25.634Z,1024.42
2018-12-10T02:55:06.366Z,1024.45
2018-12-10T02:55:47.199Z,1024.48
2018-12-10T02:56:27.966Z,1024.53
2018-12-10T02:57:08.731Z,1024.5
2018-12-10T02:57:49.466Z,1024.49
2018-12-10T02:58:30.229Z,1024.48
2018-12-10T02:59:11.022Z,1024.51
2018-12-10T02:59:51.764Z,1024.48
2018-12-10T03:00:32.530Z,1024.48
2018-12-10T03:01:13.337Z,1024.49
2018-12-10T03:01:54.107Z,1024.51
2018-12-10T03:02:34.929Z,1024.52
2018-12-10T03:03:15.676Z,1024.48
2018-12-10T03:03:56.480Z,1024.48
2018-12-10T03:04:37.257Z,1024.48
2018-12-10T03:05:17.995Z,1024.46
2018-12-10T03:05:58.703Z,1024.44
2018-12-10T03:06:39.403Z,1024.44
2018-12-10T03:07:20.163Z,1024.43
2018-12-10T03:08:00.974Z,1024.44
2018-12-10T03:08:41.769Z,1024.43
2018-12-10T03:09:22.567Z,1024.42
2018-12-10T03:10:03.306Z,1024.44
2018-12-10T03:10:44.121Z,1024.42
2018-12-10T03:11:24.986Z,1024.42
2018-12-10T03:12:05.802Z,1024.42
2018-12-10T03:12:46.571Z,1024.42
2018-12-10T03:13:27.298Z,1024.43
2018-12-10T03:14:08.143Z,1024.45
2018-12-10T03:14:48.951Z,1024.41
2018-12-10T03:15:29.786Z,1024.44
2018-12-10T03:16:10.509Z,1024.4
2018-12-10T03:16:51.283Z,1024.43
2018-12-10T03:17:32.117Z,1024.41
2018-12-10T03:18:12.842Z,1024.42
2018-12-10T03:18:53.622Z,1024.42
2018-12-10T03:19:34.426Z,1024.42
2018-12-10T03:20:15.233Z,1024.42
2018-12-10T03:20:56.014Z,1024.35
2018-12-10T03:21:36.812Z,1024.38
2018-12-10T03:22:17.577Z,1024.38
2018-12-10T03:22:58.451Z,1024.34
2018-12-10T03:23:39.261Z,1024.34
2018-12-10T03:24:20.092Z,1024.38
2018-12-10T03:25:00.823Z,1024.3
2018-12-10T03:25:41.606Z,1024.36
2018-12-10T03:26:22.333Z,1024.36
2018-12-10T03:27:03.161Z,1024.36
2018-12-10T03:27:44.017Z,1024.38
2018-12-10T03:28:24.814Z,1024.43
2018-12-10T03:29:05.593Z,1024.44
2018-12-10T03:29:46.371Z,1024.43
2018-12-10T03:30:27.209Z,1024.45
2018-12-10T03:31:08.011Z,1024.46
2018-12-10T03:31:48.757Z,1024.48
2018-12-10T03:32:29.530Z,1024.44
2018-12-10T03:33:10.342Z,1024.45
2018-12-10T03:33:51.130Z,1024.49
2018-12-10T03:34:31.827Z,1024.47
2018-12-10T03:35:12.544Z,1024.48
2018-12-10T03:35:53.382Z,1024.44
2018-12-10T03:36:34.189Z,1024.45
2018-12-10T03:37:14.943Z,1024.46
2018-12-10T03:37:55.736Z,1024.44
2018-12-10T03:38:36.566Z,1024.43
2018-12-10T03:39:17.332Z,1024.46
2018-12-10T03:39:58.059Z,1024.44
2018-12-10T03:40:38.792Z,1024.45
2018-12-10T03:41:19.487Z,1024.46
2018-12-10T03:42:00.274Z,1024.46
2018-12-10T03:42:41.025Z,1024.46
2018-12-10T03:43:21.839Z,1024.48
2018-12-10T03:44:02.599Z,1024.44
2018-12-10T03:44:43.376Z,1024.48
2018-12-10T03:45:24.120Z,1024.47
2018-12-10T03:46:04.875Z,1024.44
2018-12-10T03:46:45.678Z,1024.46
2018-12-10T03:47:26.447Z,1024.5
2018-12-10T03:48:07.172Z,1024.49
2018-12-10T03:48:47.966Z,1024.46
2018-12-10T03:49:28.796Z,1024.47
2018-12-10T03:50:09.549Z,1024.49
2018-12-10T03:50:50.268Z,1024.5
2018-12-10T03:51:31.048Z,1024.56
2018-12-10T03:52:11.787Z,1024.52
2018-12-10T03:52:52.614Z,1024.52
2018-12-10T03:53:33.424Z,1024.54
2018-12-10T03:54:14.261Z,1024.54
2018-12-10T03:54:55.047Z,1024.58
2018-12-10T03:55:35.872Z,1024.56
2018-12-10T03:56:16.774Z,1024.53
2018-12-10T03:56:57.616Z,1024.51
2018-12-10T03:57:38.311Z,1024.51
2018-12-10T03:58:19.048Z,1024.5
2018-12-10T03:58:59.759Z,1024.47
2018-12-10T03:59:40.580Z,1024.47
2018-12-10T04:00:21.375Z,1024.45
2018-12-10T04:01:02.201Z,1024.47
2018-12-10T04:01:42.976Z,1024.44
2018-12-10T04:02:23.707Z,1024.46
2018-12-10T04:03:04.469Z,1024.46
2018-12-10T04:03:45.231Z,1024.49
2018-12-10T04:04:26.000Z,1024.49
2018-12-10T04:05:06.762Z,1024.53
2018-12-10T04:05:47.551Z,1024.54
2018-12-10T04:06:28.383Z,1024.5
2018-12-10T04:07:09.199Z,1024.54
2018-12-10T04:07:50.000Z,1024.56
2018-12-10T04:08:30.717Z,1024.56
2018-12-10T04:09:11.513Z,1024.54
2018-12-10T04:09:52.324Z,1024.54
2018-12-10T04:10:33.031Z,1024.54
2018-12-10T04:11:13.735Z,1024.55
2018-12-10T04:11:54.531Z,1024.55
2018-12-10T04:12:35.305Z,1024.56
2018-12-10T04:13:16.068Z,1024.59
2018-12-10T04:13:56.875Z,1024.62
2018-12-10T04:14:37.613Z,1024.63
2018-12-10T04:15:18.399Z,1024.57
2018-12-10T04:15:59.170Z,1024.59
2018-12-10T04:16:39.955Z,1024.55
2018-12-10T04:17:20.658Z,1024.56
2018-12-10T04:18:01.407Z,1024.59
2018-12-10T04:18:42.258Z,1024.59
2018-12-10T04:19:23.095Z,1024.62
2018-12-10T04:20:03.934Z,1024.64
2018-12-10T04:20:44.701Z,1024.63
2018-12-10T04:21:25.394Z,1024.68
2018-12-10T04:22:06.136Z,1024.65
2018-12-10T04:22:46.922Z,1024.64
2018-12-10T04:23:27.644Z,1024.69
2018-12-10T04:24:08.358Z,1024.63
2018-12-10T04:24:49.083Z,1024.68
2018-12-10T04:25:29.843Z,1024.67
2018-12-10T04:26:10.657Z,1024.71
2018-12-10T04:26:51.421Z,1024.7
2018-12-10T04:27:32.277Z,1024.68
2018-12-10T04:28:12.947Z,1024.72
2018-12-10T04:28:53.730Z,1024.72
2018-12-10T04:29:34.453Z,1024.66
2018-12-10T04:30:15.185Z,1024.62
2018-12-10T04:30:55.980Z,1024.65
2018-12-10T04:31:36.711Z,1024.62
2018-12-10T04:32:17.461Z,1024.59
2018-12-10T04:32:58.266Z,1024.56
2018-12-10T04:33:39.024Z,1024.59
2018-12-10T04:34:19.762Z,1024.58
2018-12-10T04:35:00.490Z,1024.61
2018-12-10T04:35:41.237Z,1024.62
2018-12-10T04:36:22.038Z,1024.6
2018-12-10T04:37:02.828Z,1024.6
2018-12-10T04:37:43.614Z,1024.58
2018-12-10T04:38:24.402Z,1024.55
2018-12-10T04:39:05.135Z,1024.55
2018-12-10T04:39:45.888Z,1024.59
2018-12-10T04:40:26.726Z,1024.55
2018-12-10T04:41:07.438Z,1024.57
2018-12-10T04:41:48.169Z,1024.55
2018-12-10T04:42:28.911Z,1024.58
2018-12-10T04:43:09.682Z,1024.56
2018-12-10T04:43:50.464Z,1024.55
2018-12-10T04:44:31.274Z,1024.57
2018-12-10T04:45:11.996Z,1024.58
2018-12-10T04:45:52.853Z,1024.58
2018-12-10T04:46:33.715Z,1024.58
2018-12-10T04:47:14.520Z,1024.59
2018-12-10T04:47:55.263Z,1024.59
2018-12-10T04:48:36.001Z,1024.6
2018-12-10T04:49:16.871Z,1024.57
2018-12-10T04:49:57.571Z,1024.59
2018-12-10T04:50:38.271Z,1024.59
2018-12-10T04:51:19.012Z,1024.61
2018-12-10T04:51:59.757Z,1024.65
2018-12-10T04:52:40.615Z,1024.61
2018-12-10T04:53:21.381Z,1024.61
2018-12-10T04:54:02.125Z,1024.6
2018-12-10T04:54:42.833Z,1024.62
2018-12-10T04:55:23.543Z,1024.65
2018-12-10T04:56:04.299Z,1024.67
2018-12-10T04:56:45.170Z,1024.64
2018-12-10T04:57:25.882Z,1024.64
2018-12-10T04:58:06.637Z,1024.69
2018-12-10T04:58:47.433Z,1024.69
2018-12-10T04:59:28.264Z,1024.72
2018-12-10T05:00:09.087Z,1024.7
2018-12-10T05:00:49.824Z,1024.68
2018-12-10T05:01:30.758Z,1024.74
2018-12-10T05:02:11.551Z,1024.73
2018-12-10T05:02:52.328Z,1024.76
2018-12-10T05:03:33.184Z,1024.73
2018-12-10T05:04:14.054Z,1024.77
2018-12-10T05:04:54.797Z,1024.73
2018-12-10T05:05:35.523Z,1024.72
2018-12-10T05:06:16.310Z,1024.73
2018-12-10T05:06:57.074Z,1024.7
2018-12-10T05:07:37.810Z,1024.7
2018-12-10T05:08:18.512Z,1024.73
2018-12-10T05:08:59.278Z,1024.71
2018-12-10T05:09:40.116Z,1024.73
2018-12-10T05:10:20.933Z,1024.74
2018-12-10T05:11:01.772Z,1024.7
2018-12-10T05:11:42.533Z,1024.76
2018-12-10T05:12:23.315Z,1024.78
2018-12-10T05:13:04.075Z,1024.78
2018-12-10T05:13:44.898Z,1024.77
2018-12-10T05:14:25.693Z,1024.81
2018-12-10T05:15:06.475Z,1024.86
2018-12-10T05:15:47.280Z,1024.82
2018-12-10T05:16:28.089Z,1024.83
2018-12-10T05:17:08.922Z,1024.9
2018-12-10T05:17:49.723Z,1024.85
2018-12-10T05:18:30.398Z,1024.87
2018-12-10T05:19:11.171Z,1024.88
2018-12-10T05:19:51.961Z,1024.9
2018-12-10T05:20:32.704Z,1024.88
2018-12-10T05:21:13.605Z,1024.89
2018-12-10T05:21:54.126Z,1024.87
2018-12-10T05:22:34.890Z,1024.87
2018-12-10T05:23:15.622Z,1024.89
2018-12-10T05:23:56.355Z,1024.85
2018-12-10T05:24:37.236Z,1024.89
2018-12-10T05:25:18.036Z,1024.89
2018-12-10T05:25:58.874Z,1024.86
2018-12-10T05:26:39.594Z,1024.88
2018-12-10T05:27:20.345Z,1024.86
2018-12-10T05:28:01.083Z,1024.84
2018-12-10T05:28:41.795Z,1024.86
2018-12-10T05:29:22.602Z,1024.87
2018-12-10T05:30:03.339Z,1024.88
2018-12-10T05:30:44.148Z,1024.87
2018-12-10T05:31:24.891Z,1024.84
2018-12-10T05:32:05.677Z,1024.87
2018-12-10T05:32:46.513Z,1024.87
2018-12-10T05:33:27.239Z,1024.9
2018-12-10T05:34:07.980Z,1024.88
2018-12-10T05:34:48.720Z,1024.89
2018-12-10T05:35:29.517Z,1024.89
2018-12-10T05:36:10.283Z,1024.95
2018-12-10T05:36:50.975Z,1024.95
2018-12-10T05:37:31.832Z,1024.94
2018-12-10T05:38:12.998Z,1024.95
2018-12-10T05:38:53.929Z,1025
2018-12-10T05:39:35.078Z,1024.92
2018-12-10T05:40:15.685Z,1024.92
2018-12-10T05:40:56.484Z,1024.93
2018-12-10T05:41:37.249Z,1024.9
2018-12-10T05:42:17.949Z,1024.94
2018-12-10T05:42:58.791Z,1024.94
2018-12-10T05:43:39.420Z,1024.93
2018-12-10T05:44:20.246Z,1024.9
2018-12-10T05:45:01.005Z,1024.92
2018-12-10T05:45:41.841Z,1024.9
2018-12-10T05:46:22.546Z,1024.88
2018-12-10T05:47:03.309Z,1024.88
2018-12-10T05:47:44.034Z,1024.91
2018-12-10T05:48:24.792Z,1024.93
2018-12-10T05:49:05.592Z,1024.92
2018-12-10T05:49:46.311Z,1024.93
2018-12-10T05:50:27.104Z,1024.95
2018-12-10T05:51:07.930Z,1024.96
2018-12-10T05:51:48.717Z,1025.02
2018-12-10T05:52:29.498Z,1024.97
2018-12-10T05:53:10.203Z,1024.99
2018-12-10T05:53:50.991Z,1024.99
2018-12-10T05:54:31.769Z,1024.96
2018-12-10T05:55:12.488Z,1024.98
2018-12-10T05:55:53.344Z,1024.98
2018-12-10T05:56:34.020Z,1024.99
2018-12-10T05:57:14.811Z,1024.96
2018-12-10T05:57:55.546Z,1025.01
2018-12-10T05:58:36.334Z,1024.98
2018-12-10T05:59:17.132Z,1025.03
2018-12-10T05:59:57.933Z,1025.03
2018-12-10T06:00:38.735Z,1025.06
2018-12-10T06:01:19.453Z,1025.04
2018-12-10T06:02:00.167Z,1025.02
2018-12-10T06:02:40.912Z,1025.01
2018-12-10T06:03:21.683Z,1025
2018-12-10T06:04:02.520Z,1024.99
2018-12-10T06:04:43.329Z,1025.03
2018-12-10T06:05:24.292Z,1025.05
2018-12-10T06:06:05.008Z,1025.04
2018-12-10T06:06:45.798Z,1025.05
2018-12-10T06:07:26.652Z,1025.07
2018-12-10T06:08:07.400Z,1025.06
2018-12-10T06:08:48.106Z,1025.08
2018-12-10T06:09:28.843Z,1025.08
2018-12-10T06:10:09.640Z,1025.1
2018-12-10T06:10:50.505Z,1025.09
2018-12-10T06:11:31.290Z,1025.13
2018-12-10T06:12:12.032Z,1025.15
2018-12-10T06:12:52.757Z,1025.11
2018-12-10T06:13:33.480Z,1025.15
2018-12-10T06:14:14.255Z,1025.2
2018-12-10T06:14:55.125Z,1025.2
2018-12-10T06:15:35.913Z,1025.19
2018-12-10T06:16:16.831Z,1025.19
2018-12-10T06:16:57.595Z,1025.2
2018-12-10T06:17:38.269Z,1025.18
2018-12-10T06:18:19.073Z,1025.18
2018-12-10T06:18:59.817Z,1025.18
2018-12-10T06:19:40.526Z,1025.19
2018-12-10T06:20:21.280Z,1025.12
2018-12-10T06:21:02.007Z,1025.14
2018-12-10T06:21:42.806Z,1025.17
2018-12-10T06:22:23.690Z,1025.13
2018-12-10T06:23:04.397Z,1025.17
2018-12-10T06:23:45.123Z,1025.2
2018-12-10T06:24:25.947Z,1025.17
2018-12-10T06:25:06.739Z,1025.18
2018-12-10T06:25:47.427Z,1025.18
2018-12-10T06:26:28.140Z,1025.2
2018-12-10T06:27:08.876Z,1025.17
2018-12-10T06:27:49.753Z,1025.22
2018-12-10T06:28:30.479Z,1025.23
2018-12-10T06:29:11.264Z,1025.25
2018-12-10T06:29:52.213Z,1025.27
2018-12-10T06:30:32.985Z,1025.26
2018-12-10T06:31:13.795Z,1025.28
2018-12-10T06:31:54.528Z,1025.29
2018-12-10T06:32:35.245Z,1025.29
2018-12-10T06:33:16.057Z,1025.29
2018-12-10T06:33:56.795Z,1025.32
2018-12-10T06:34:37.522Z,1025.32
2018-12-10T06:35:18.274Z,1025.33
2018-12-10T06:35:59.072Z,1025.34
2018-12-10T06:36:39.937Z,1025.32
2018-12-10T06:37:20.710Z,1025.34
2018-12-10T06:38:01.486Z,1025.32
2018-12-10T06:38:42.229Z,1025.33
2018-12-10T06:39:22.959Z,1025.37
2018-12-10T06:40:03.688Z,1025.34
2018-12-10T06:40:44.456Z,1025.32
2018-12-10T06:41:25.205Z,1025.33
2018-12-10T06:42:05.903Z,1025.32
2018-12-10T06:42:46.682Z,1025.29
2018-12-10T06:43:27.444Z,1025.3
2018-12-10T06:44:08.272Z,1025.27
2018-12-10T06:44:48.998Z,1025.31
2018-12-10T06:45:29.736Z,1025.31
2018-12-10T06:46:10.573Z,1025.31
2018-12-10T06:46:51.315Z,1025.32
2018-12-10T06:47:32.036Z,1025.31
2018-12-10T06:48:12.802Z,1025.37
2018-12-10T06:48:53.524Z,1025.35
2018-12-10T06:49:34.343Z,1025.37
2018-12-10T06:50:15.114Z,1025.32
2018-12-10T06:50:55.812Z,1025.36
2018-12-10T06:51:36.594Z,1025.33
2018-12-10T06:52:17.339Z,1025.39
2018-12-10T06:52:58.131Z,1025.44
2018-12-10T06:53:38.864Z,1025.43
2018-12-10T06:54:19.603Z,1025.44
2018-12-10T06:55:01.517Z,1025.42
2018-12-10T06:55:41.202Z,1025.44
2018-12-10T06:56:22.029Z,1025.45
2018-12-10T06:57:02.842Z,1025.46
2018-12-10T06:57:43.609Z,1025.49
2018-12-10T06:58:24.336Z,1025.47
2018-12-10T06:59:05.128Z,1025.48
2018-12-10T06:59:45.935Z,1025.47
2018-12-10T07:00:26.750Z,1025.49
2018-12-10T07:01:07.475Z,1025.47
2018-12-10T07:01:48.208Z,1025.39
2018-12-10T07:02:29.048Z,1025.42
2018-12-10T07:03:09.842Z,1025.45
2018-12-10T07:03:50.577Z,1025.44
2018-12-10T07:04:31.434Z,1025.4
2018-12-10T07:05:12.178Z,1025.44
2018-12-10T07:05:53.045Z,1025.44
2018-12-10T07:06:33.907Z,1025.45
2018-12-10T07:07:14.736Z,1025.42
2018-12-10T07:07:55.673Z,1025.46
2018-12-10T07:08:36.547Z,1025.53
2018-12-10T07:09:17.263Z,1025.49
2018-12-10T07:09:57.978Z,1025.55
2018-12-10T07:10:38.814Z,1025.55
2018-12-10T07:11:19.630Z,1025.54
2018-12-10T07:12:00.419Z,1025.59
2018-12-10T07:12:41.187Z,1025.55
2018-12-10T07:13:21.875Z,1025.55
2018-12-10T07:14:02.652Z,1025.55
2018-12-10T07:14:43.333Z,1025.56
2018-12-10T07:15:24.147Z,1025.59
2018-12-10T07:16:04.886Z,1025.58
2018-12-10T07:16:45.584Z,1025.57
2018-12-10T07:17:26.353Z,1025.6
2018-12-10T07:18:07.139Z,1025.55
2018-12-10T07:18:47.991Z,1025.55
2018-12-10T07:19:28.717Z,1025.52
2018-12-10T07:20:09.460Z,1025.56
2018-12-10T07:20:50.211Z,1025.56
2018-12-10T07:21:30.965Z,1025.55
2018-12-10T07:22:11.736Z,1025.56
2018-12-10T07:22:52.532Z,1025.58
2018-12-10T07:23:33.313Z,1025.62
2018-12-10T07:24:14.071Z,1025.6
2018-12-10T07:24:54.826Z,1025.61
2018-12-10T07:25:35.607Z,1025.61
2018-12-10T07:26:16.353Z,1025.62
2018-12-10T07:26:57.074Z,1025.63
2018-12-10T07:27:37.793Z,1025.64
2018-12-10T07:28:18.528Z,1025.66
2018-12-10T07:28:59.381Z,1025.69
2018-12-10T07:29:40.187Z,1025.64
2018-12-10T07:30:21.022Z,1025.63
2018-12-10T07:31:01.791Z,1025.67
2018-12-10T07:31:42.530Z,1025.65
2018-12-10T07:32:23.309Z,1025.62
2018-12-10T07:33:04.119Z,1025.63
2018-12-10T07:33:44.862Z,1025.6
2018-12-10T07:34:25.564Z,1025.62
2018-12-10T07:35:06.416Z,1025.62
2018-12-10T07:35:47.219Z,1025.63
2018-12-10T07:36:27.984Z,1025.62
2018-12-10T07:37:08.689Z,1025.63
2018-12-10T07:37:49.401Z,1025.62
2018-12-10T07:38:30.184Z,1025.63
2018-12-10T07:39:10.900Z,1025.65
2018-12-10T07:39:51.600Z,1025.64
2018-12-10T07:40:32.302Z,1025.62
2018-12-10T07:41:13.059Z,1025.64
2018-12-10T07:41:53.887Z,1025.63
2018-12-10T07:42:34.589Z,1025.62
2018-12-10T07:43:15.322Z,1025.64
2018-12-10T07:43:56.103Z,1025.66
2018-12-10T07:44:36.928Z,1025.69
2018-12-10T07:45:17.761Z,1025.68
2018-12-10T07:45:58.495Z,1025.68
2018-12-10T07:46:39.230Z,1025.72
2018-12-10T07:47:20.009Z,1025.71
2018-12-10T07:48:00.827Z,1025.71
2018-12-10T07:48:41.687Z,1025.69
2018-12-10T07:49:22.532Z,1025.7
2018-12-10T07:50:03.240Z,1025.68
2018-12-10T07:50:43.972Z,1025.7
2018-12-10T07:51:24.779Z,1025.7
2018-12-10T07:52:05.516Z,1025.7
2018-12-10T07:52:46.204Z,1025.69
2018-12-10T07:53:26.936Z,1025.7
2018-12-10T07:54:07.651Z,1025.7
2018-12-10T07:54:48.459Z,1025.72
2018-12-10T07:55:29.185Z,1025.75
2018-12-10T07:56:09.912Z,1025.7
2018-12-10T07:56:50.772Z,1025.72
2018-12-10T07:57:31.574Z,1025.72
2018-12-10T07:58:12.391Z,1025.72
2018-12-10T07:58:53.116Z,1025.74
2018-12-10T07:59:33.884Z,1025.73
2018-12-10T08:00:14.678Z,1025.72
2018-12-10T08:00:55.455Z,1025.76
2018-12-10T08:01:36.153Z,1025.7
2018-12-10T08:02:16.886Z,1025.77
2018-12-10T08:02:57.680Z,1025.76
2018-12-10T08:03:38.475Z,1025.73
2018-12-10T08:04:19.277Z,1025.74
2018-12-10T08:05:00.053Z,1025.75
2018-12-10T08:05:40.787Z,1025.73
2018-12-10T08:06:21.496Z,1025.72
2018-12-10T08:07:02.256Z,1025.77
2018-12-10T08:07:43.043Z,1025.73
2018-12-10T08:08:23.860Z,1025.77
2018-12-10T08:09:04.662Z,1025.79
2018-12-10T08:09:45.476Z,1025.78
2018-12-10T08:10:26.264Z,1025.78
2018-12-10T08:11:07.026Z,1025.78
2018-12-10T08:11:47.734Z,1025.81
2018-12-10T08:12:28.493Z,1025.85
2018-12-10T08:13:09.312Z,1025.82
2018-12-10T08:13:50.050Z,1025.8
2018-12-10T08:14:31.021Z,1025.83
2018-12-10T08:15:11.735Z,1025.8